Time;durP1;ratioP1;P1;durP2;ratioP2;P2;SDS_P1;SDS_P2;PMS_P1;PMS_P2;Temp;Humidity;BMP_temperature;BMP_pressure;BME280_temperature;BME280_humidity;BME280_pressure;Samples;Min_cycle;Max_cycle;Signal;HPM_P1;HPM_P2
2023/12/21 00:00:31;;;;;;;37.42;28.98;;;;;;;6.82;100.00;100647.16;5007521;28;20041;-87
2023/12/21 00:02:57;;;;;;;40.10;28.90;;;;;;;6.80;100.00;100641.06;5032261;28;20474;-87
2023/12/21 00:05:22;;;;;;;38.10;28.80;;;;;;;6.79;100.00;100623.47;5028411;28;20108;-87
2023/12/21 00:07:51;;;;;;;35.05;28.55;;;;;;;6.84;100.00;100645.31;5027084;28;20429;-85
2023/12/21 00:10:16;;;;;;;37.78;28.23;;;;;;;6.84;100.00;100629.44;5008872;28;20036;-86
2023/12/21 00:12:42;;;;;;;38.70;28.50;;;;;;;6.82;100.00;100615.41;5021861;28;20037;-87
2023/12/21 00:15:08;;;;;;;37.38;29.13;;;;;;;6.72;100.00;100582.28;5028797;28;20064;-87
2023/12/21 00:17:33;;;;;;;37.70;28.30;;;;;;;6.65;100.00;100555.25;5023812;28;20037;-86
2023/12/21 00:19:59;;;;;;;35.03;28.77;;;;;;;6.87;100.00;100594.06;5024544;28;20030;-89
2023/12/21 00:22:24;;;;;;;40.15;28.92;;;;;;;6.88;100.00;100583.41;5011178;28;20041;-86
2023/12/21 00:24:49;;;;;;;38.83;29.63;;;;;;;6.87;100.00;100586.13;5030096;28;20029;-87
2023/12/21 00:27:15;;;;;;;39.83;29.95;;;;;;;6.87;100.00;100587.00;5023115;28;20502;-87
2023/12/21 00:29:40;;;;;;;43.17;30.20;;;;;;;6.87;100.00;100583.50;5033033;28;20119;-87
2023/12/21 00:32:06;;;;;;;39.33;30.23;;;;;;;6.79;100.00;100559.13;5017249;28;20029;-86
2023/12/21 00:34:31;;;;;;;41.35;30.63;;;;;;;6.87;100.00;100563.19;5030109;28;20370;-88
2023/12/21 00:36:57;;;;;;;39.00;30.52;;;;;;;6.88;100.00;100566.69;5032578;28;20026;-86
2023/12/21 00:39:22;;;;;;;41.92;30.90;;;;;;;6.87;100.00;100557.91;5040881;28;20094;-84
2023/12/21 00:41:48;;;;;;;40.35;30.95;;;;;;;6.81;100.00;100547.53;5049383;28;20041;-84
2023/12/21 00:44:13;;;;;;;39.90;30.38;;;;;;;6.86;100.00;100556.19;5056546;28;20038;-84
2023/12/21 00:46:38;;;;;;;39.65;30.88;;;;;;;6.80;100.00;100539.69;5045010;28;20029;-84
2023/12/21 00:49:04;;;;;;;42.00;31.38;;;;;;;6.88;100.00;100537.59;5048078;28;20049;-86
2023/12/21 00:51:29;;;;;;;43.20;31.05;;;;;;;6.83;100.00;100519.25;5031088;28;20056;-85
2023/12/21 00:53:54;;;;;;;43.42;31.58;;;;;;;6.87;100.00;100517.34;5027883;28;20041;-87
2023/12/21 00:56:20;;;;;;;42.97;32.08;;;;;;;6.85;100.00;100513.88;5028313;28;20059;-88
2023/12/21 00:58:45;;;;;;;43.33;31.77;;;;;;;6.87;100.00;100509.41;5017108;28;20096;-86
2023/12/21 01:01:10;;;;;;;43.85;32.65;;;;;;;6.84;100.00;100506.88;5033359;28;20029;-87
2023/12/21 01:03:36;;;;;;;47.47;31.13;;;;;;;6.73;100.00;100486.19;5009600;28;20045;-88
2023/12/21 01:06:01;;;;;;;45.35;31.65;;;;;;;6.81;100.00;100491.97;5030208;28;20034;-87
2023/12/21 01:08:27;;;;;;;44.30;31.73;;;;;;;6.85;100.00;100498.00;5021899;28;20562;-88
2023/12/21 01:10:52;;;;;;;42.60;30.48;;;;;;;6.87;100.00;100504.97;5027845;28;20049;-87
2023/12/21 01:13:18;;;;;;;44.00;32.00;;;;;;;6.83;100.00;100481.38;5005953;28;20060;-87
2023/12/21 01:15:43;;;;;;;41.63;29.98;;;;;;;6.79;100.00;100462.09;5029008;28;20029;-87
2023/12/21 01:18:09;;;;;;;41.67;29.83;;;;;;;6.89;100.00;100489.03;5022963;28;20030;-86
2023/12/21 01:20:34;;;;;;;45.90;29.20;;;;;;;6.83;100.00;100476.94;5016975;28;20185;-88
2023/12/21 01:22:59;;;;;;;38.85;28.27;;;;;;;6.89;100.00;100466.06;5023681;28;20041;-87
2023/12/21 01:25:25;;;;;;;41.42;29.15;;;;;;;6.87;100.00;100478.53;5008974;28;20037;-88
2023/12/21 01:27:50;;;;;;;44.50;28.38;;;;;;;6.89;100.00;100483.75;5031883;28;20041;-88
2023/12/21 01:30:15;;;;;;;39.60;29.25;;;;;;;6.90;100.00;100473.13;5030675;28;20508;-87
2023/12/21 01:32:41;;;;;;;40.10;28.77;;;;;;;6.83;100.00;100449.63;4994658;28;1158067;-87
2023/12/21 01:35:06;;;;;;;39.20;29.55;;;;;;;6.90;100.00;100451.09;5032223;28;20036;-88
2023/12/21 01:37:32;;;;;;;41.28;30.25;;;;;;;6.90;100.00;100457.25;5035984;28;20045;-86
2023/12/21 01:39:57;;;;;;;43.05;30.00;;;;;;;6.91;100.00;100448.38;5018529;28;20025;-87
2023/12/21 01:42:22;;;;;;;39.63;30.27;;;;;;;6.90;100.00;100440.50;5040048;28;20037;-85
2023/12/21 01:44:48;;;;;;;42.50;30.13;;;;;;;6.88;100.00;100431.75;5028619;28;20029;-86
2023/12/21 01:47:14;;;;;;;41.03;30.80;;;;;;;6.84;100.00;100440.75;5025909;28;20044;-88
2023/12/21 01:49:40;;;;;;;42.20;30.52;;;;;;;6.90;100.00;100446.66;5033455;28;20111;-86
2023/12/21 01:52:08;;;;;;;39.28;29.30;;;;;;;6.91;100.00;100447.50;5032332;28;20124;-87
2023/12/21 01:54:35;;;;;;;40.17;30.45;;;;;;;6.89;100.00;100444.91;5030142;28;20060;-88
2023/12/21 01:57:01;;;;;;;41.75;30.77;;;;;;;6.85;100.00;100426.59;5020402;28;20033;-86
2023/12/21 01:59:26;;;;;;;39.85;31.48;;;;;;;6.88;100.00;100424.69;5024784;28;20034;-88
2023/12/21 02:01:52;;;;;;;41.88;30.15;;;;;;;6.80;100.00;100410.06;5017275;28;20086;-88
2023/12/21 02:04:18;;;;;;;40.03;30.45;;;;;;;6.87;100.00;100417.69;5022985;28;20483;-86
2023/12/21 02:06:43;;;;;;;44.40;30.95;;;;;;;6.90;100.00;100436.06;5028940;28;20030;-87
2023/12/21 02:09:09;;;;;;;42.90;30.17;;;;;;;6.94;100.00;100442.97;5025969;28;20041;-87
2023/12/21 02:11:34;;;;;;;46.63;30.58;;;;;;;6.90;100.00;100440.50;5036634;28;20079;-86
2023/12/21 02:14:00;;;;;;;40.53;30.65;;;;;;;6.87;100.00;100428.25;5028260;28;20053;-87
2023/12/21 02:16:36;;;;;;;43.58;31.65;;;;;;;6.81;100.00;100417.06;5025417;28;20052;-89
2023/12/21 02:19:03;;;;;;;39.38;29.98;;;;;;;6.85;100.00;100424.81;5035174;28;20064;-87
2023/12/21 02:21:30;;;;;;;45.63;31.25;;;;;;;6.91;100.00;100426.34;5037722;28;20037;-87
2023/12/21 02:23:58;;;;;;;41.75;30.75;;;;;;;6.93;100.00;100419.19;5030576;28;20120;-86
2023/12/21 02:26:24;;;;;;;42.25;30.15;;;;;;;6.92;100.00;100430.72;5033557;28;20033;-88
2023/12/21 02:28:50;;;;;;;42.08;30.60;;;;;;;6.92;100.00;100418.34;5007183;28;20036;-87
2023/12/21 02:31:15;;;;;;;46.50;31.63;;;;;;;6.93;100.00;100405.97;5022501;28;20025;-86
2023/12/21 02:33:41;;;;;;;50.63;32.03;;;;;;;6.94;100.00;100416.50;5001395;28;20046;-86
2023/12/21 02:36:07;;;;;;;43.47;30.02;;;;;;;6.80;100.00;100376.53;5005591;28;20863;-87
2023/12/21 02:38:33;;;;;;;41.72;29.58;;;;;;;6.95;100.00;100390.91;5005517;28;20045;-86
2023/12/21 02:40:59;;;;;;;44.30;30.05;;;;;;;6.93;100.00;100387.44;5003753;28;20545;-88
2023/12/21 02:43:24;;;;;;;47.58;29.70;;;;;;;6.89;100.00;100380.56;5009748;28;20092;-88
2023/12/21 02:45:50;;;;;;;50.20;30.70;;;;;;;6.87;100.00;100366.56;5016177;28;20076;-87
2023/12/21 02:48:15;;;;;;;44.45;30.45;;;;;;;6.87;100.00;100358.63;5005618;28;20052;-86
2023/12/21 02:50:40;;;;;;;54.15;31.75;;;;;;;6.93;100.00;100371.56;5014864;28;20040;-85
2023/12/21 02:53:06;;;;;;;53.40;32.60;;;;;;;6.93;100.00;100364.50;5012342;28;20085;-87
2023/12/21 02:55:31;;;;;;;47.70;31.27;;;;;;;6.93;100.00;100367.13;5012536;28;20208;-88
2023/12/21 02:57:56;;;;;;;49.65;31.13;;;;;;;6.92;100.00;100367.22;5002152;28;20605;-87
2023/12/21 03:00:22;;;;;;;45.85;31.00;;;;;;;6.84;100.00;100356.97;4986760;28;20476;-87
2023/12/21 03:02:47;;;;;;;48.10;29.95;;;;;;;6.88;100.00;100341.81;5006583;28;20025;-85
2023/12/21 03:05:15;;;;;;;48.38;30.60;;;;;;;6.94;100.00;100342.41;5007573;28;20053;-87
2023/12/21 03:07:40;;;;;;;49.08;29.92;;;;;;;6.95;100.00;100353.84;5001600;28;20088;-87
2023/12/21 03:10:06;;;;;;;48.63;28.83;;;;;;;6.86;100.00;100346.31;5006819;28;20065;-85
2023/12/21 03:12:31;;;;;;;45.40;29.00;;;;;;;6.95;100.00;100348.56;5009846;28;20485;-87
2023/12/21 03:14:57;;;;;;;45.40;28.40;;;;;;;6.93;100.00;100345.13;4995483;28;20116;-87
2023/12/21 03:17:22;;;;;;;45.90;28.13;;;;;;;6.94;100.00;100336.28;4998426;28;20038;-87
2023/12/21 03:19:50;;;;;;;44.45;27.02;;;;;;;6.87;100.00;100303.06;5003547;28;20461;-84
2023/12/21 03:22:16;;;;;;;44.47;26.67;;;;;;;6.96;100.00;100287.63;4991345;28;20521;-86
2023/12/21 03:24:41;;;;;;;44.63;26.80;;;;;;;6.95;100.00;100271.84;5009460;28;20034;-85
2023/12/21 03:27:09;;;;;;;46.42;26.48;;;;;;;6.95;100.00;100258.59;5001747;28;20090;-87
2023/12/21 03:29:35;;;;;;;45.83;26.13;;;;;;;6.87;100.00;100247.50;4992503;28;20046;-84
2023/12/21 03:32:00;;;;;;;44.17;25.60;;;;;;;6.87;100.00;100239.56;4990056;28;20562;-86
2023/12/21 03:34:25;;;;;;;46.88;26.35;;;;;;;6.91;100.00;100252.59;5032969;28;20017;-84
2023/12/21 03:36:51;;;;;;;43.40;25.52;;;;;;;6.95;100.00;100253.31;5036512;28;20033;-85
2023/12/21 03:39:16;;;;;;;42.90;24.77;;;;;;;6.91;100.00;100244.66;5051979;28;20077;-86
2023/12/21 03:41:42;;;;;;;44.78;25.33;;;;;;;6.94;100.00;100239.22;5032568;28;20102;-86
2023/12/21 03:44:08;;;;;;;44.08;25.27;;;;;;;6.95;100.00;100251.53;5039019;28;20033;-87
2023/12/21 03:46:33;;;;;;;48.08;25.10;;;;;;;6.87;100.00;100229.84;5020260;28;20512;-86
2023/12/21 03:48:58;;;;;;;40.75;24.52;;;;;;;6.94;100.00;100226.00;5027293;28;20041;-86
2023/12/21 03:51:24;;;;;;;43.10;24.58;;;;;;;6.95;100.00;100226.88;5028859;28;20029;-86
2023/12/21 03:53:49;;;;;;;46.17;25.13;;;;;;;6.94;100.00;100220.72;5025003;28;20033;-86
2023/12/21 03:56:15;;;;;;;48.13;26.90;;;;;;;6.81;100.00;100186.94;5027639;28;20042;-84
2023/12/21 03:58:40;;;;;;;52.42;26.85;;;;;;;6.96;100.00;100216.19;5023792;28;20041;-85
2023/12/21 04:01:05;;;;;;;52.88;27.13;;;;;;;6.97;100.00;100214.41;5018710;28;20033;-86
2023/12/21 04:03:31;;;;;;;45.80;26.80;;;;;;;6.94;100.00;100201.34;4996929;28;20049;-84
2023/12/21 04:05:56;;;;;;;50.83;27.58;;;;;;;6.98;100.00;100195.84;5022922;28;20161;-85
2023/12/21 04:08:22;;;;;;;50.67;26.63;;;;;;;6.97;100.00;100188.81;5027961;28;20116;-84
2023/12/21 04:10:48;;;;;;;53.25;26.73;;;;;;;6.96;100.00;100197.69;5002861;28;20034;-84
2023/12/21 04:13:14;;;;;;;52.20;26.52;;;;;;;6.89;100.00;100184.78;5005345;28;20056;-85
2023/12/21 04:15:39;;;;;;;46.03;25.58;;;;;;;6.98;100.00;100197.59;5021635;28;20033;-86
2023/12/21 04:18:05;;;;;;;46.88;24.75;;;;;;;6.96;100.00;100183.59;5011612;28;20054;-85
2023/12/21 04:20:30;;;;;;;47.03;24.58;;;;;;;6.98;100.00;100182.59;5023553;28;20048;-85
2023/12/21 04:22:56;;;;;;;50.72;25.10;;;;;;;6.91;100.00;100167.94;5017181;28;20105;-85
2023/12/21 04:25:22;;;;;;;48.83;25.05;;;;;;;6.94;100.00;100170.44;5018540;28;20041;-84
2023/12/21 04:27:50;;;;;;;52.25;24.63;;;;;;;6.99;100.00;100168.44;5015548;28;20041;-85
2023/12/21 04:30:15;;;;;;;46.03;23.63;;;;;;;6.96;100.00;100144.75;5013730;28;20033;-86
2023/12/21 04:32:42;;;;;;;54.20;24.95;;;;;;;6.98;100.00;100148.22;5014069;28;20037;-85
2023/12/21 04:35:09;;;;;;;49.33;24.58;;;;;;;6.99;100.00;100149.91;5021865;28;20033;-86
2023/12/21 04:37:34;;;;;;;49.92;24.33;;;;;;;6.86;100.00;100122.34;5024370;28;20033;-85
2023/12/21 04:39:59;;;;;;;49.85;23.90;;;;;;;7.02;100.00;100134.81;5027728;28;20053;-86
2023/12/21 04:42:25;;;;;;;44.83;24.65;;;;;;;7.02;100.00;100118.94;5021032;28;20038;-85
2023/12/21 04:44:50;;;;;;;52.15;27.48;;;;;;;6.97;100.00;100085.63;5018643;28;20076;-85
2023/12/21 04:47:15;;;;;;;46.00;25.13;;;;;;;7.07;100.00;100099.28;5015492;28;20045;-85
2023/12/21 04:49:41;;;;;;;45.75;25.05;;;;;;;7.09;100.00;100107.13;5016718;28;20037;-86
2023/12/21 04:52:06;;;;;;;45.67;25.80;;;;;;;7.09;100.00;100112.44;5030284;28;20041;-86
2023/12/21 04:54:31;;;;;;;41.78;24.73;;;;;;;7.11;100.00;100100.00;5028130;28;20047;-87
2023/12/21 04:56:57;;;;;;;45.85;25.00;;;;;;;7.14;100.00;100099.81;5028413;28;20035;-86
2023/12/21 04:59:22;;;;;;;43.85;24.80;;;;;;;7.14;100.00;100089.25;5026777;28;20498;-86
2023/12/21 05:01:50;;;;;;;42.47;25.55;;;;;;;7.08;100.00;100077.19;5028880;28;20037;-85
2023/12/21 05:04:15;;;;;;;38.08;24.27;;;;;;;7.14;100.00;100079.50;5021110;28;20056;-85
2023/12/21 05:06:41;;;;;;;43.30;25.38;;;;;;;7.10;100.00;100055.91;5023407;28;20038;-85
2023/12/21 05:09:06;;;;;;;44.38;24.13;;;;;;;7.14;100.00;100057.47;5014043;28;20038;-84
2023/12/21 05:11:31;;;;;;;44.00;25.05;;;;;;;7.09;100.00;100031.25;5023062;28;20045;-85
2023/12/21 05:13:57;;;;;;;42.63;24.23;;;;;;;7.12;100.00;100051.44;5038065;28;20559;-86
2023/12/21 05:16:22;;;;;;;45.22;24.20;;;;;;;7.15;100.00;100072.44;5035348;28;20032;-85
2023/12/21 05:18:51;;;;;;;45.50;23.52;;;;;;;7.18;100.00;100064.34;5029329;28;20112;-85
2023/12/21 05:21:16;;;;;;;40.42;22.35;;;;;;;7.10;100.00;100050.63;5034414;28;20037;-87
2023/12/21 05:23:41;;;;;;;37.80;23.15;;;;;;;7.18;100.00;100064.34;5040671;28;20099;-87
2023/12/21 05:26:12;;;;;;;33.85;22.02;;;;;;;7.13;100.00;100039.91;5016546;28;20452;-85
2023/12/21 05:28:38;;;;;;;37.60;22.02;;;;;;;7.13;100.00;100046.03;5038570;28;20021;-87
2023/12/21 05:31:05;;;;;;;38.38;21.05;;;;;;;7.15;100.00;100040.69;5025187;28;20625;-85
2023/12/21 05:33:31;;;;;;;41.88;21.65;;;;;;;7.15;100.00;100028.31;5028088;28;20045;-85
2023/12/21 05:35:56;;;;;;;37.47;20.23;;;;;;;7.20;100.00;100010.41;5028243;28;20029;-85
2023/12/21 05:38:21;;;;;;;39.50;20.77;;;;;;;7.16;100.00;100008.84;5038074;28;20037;-86
2023/12/21 05:40:47;;;;;;;35.25;21.75;;;;;;;7.08;100.00;99973.97;5016867;28;20097;-86
2023/12/21 05:43:12;;;;;;;36.70;21.10;;;;;;;7.22;100.00;100018.25;5043607;28;20033;-85
2023/12/21 05:45:37;;;;;;;37.55;21.48;;;;;;;7.23;100.00;100006.72;5034224;28;20032;-86
2023/12/21 05:48:03;;;;;;;37.15;20.90;;;;;;;7.26;100.00;100013.69;5028134;28;20034;-86
2023/12/21 05:50:28;;;;;;;38.42;20.90;;;;;;;7.26;100.00;100021.63;5036156;28;20048;-86
2023/12/21 05:52:53;;;;;;;37.80;20.60;;;;;;;7.16;100.00;100014.16;5031284;28;20037;-84
2023/12/21 05:55:19;;;;;;;36.83;21.45;;;;;;;7.24;100.00;100024.34;5029871;28;20029;-84
2023/12/21 05:57:44;;;;;;;36.28;20.55;;;;;;;7.19;100.00;100005.19;5016204;28;20488;-86
2023/12/21 06:00:10;;;;;;;36.53;20.38;;;;;;;7.20;100.00;100017.50;5020027;28;20079;-85
2023/12/21 06:02:36;;;;;;;38.47;21.33;;;;;;;7.26;100.00;100026.91;5033524;28;20064;-86
2023/12/21 06:05:01;;;;;;;35.88;20.15;;;;;;;7.26;100.00;100032.22;5029754;28;20523;-85
2023/12/21 06:07:26;;;;;;;38.67;21.02;;;;;;;7.19;100.00;100018.41;5031080;28;20310;-86
2023/12/21 06:09:52;;;;;;;41.75;20.98;;;;;;;7.28;100.00;100022.41;5039153;28;20056;-86
2023/12/21 06:12:21;;;;;;;34.92;20.83;;;;;;;7.29;100.00;100024.13;5036596;28;20049;-83
2023/12/21 06:14:46;;;;;;;36.42;20.52;;;;;;;7.27;100.00;100010.09;5030316;28;20025;-86
2023/12/21 06:17:11;;;;;;;32.83;19.65;;;;;;;7.28;100.00;99999.44;5027862;28;20561;-85
2023/12/21 06:19:37;;;;;;;34.75;21.67;;;;;;;7.31;100.00;100001.06;5018152;28;20042;-86
2023/12/21 06:22:02;;;;;;;35.50;22.05;;;;;;;7.31;100.00;99999.25;5026907;28;20048;-86
2023/12/21 06:24:28;;;;;;;36.72;22.60;;;;;;;7.24;100.00;99958.19;5034506;28;20093;-86
2023/12/21 06:26:53;;;;;;;40.85;24.60;;;;;;;7.30;100.00;99957.00;5008454;28;20080;-86
2023/12/21 06:29:19;;;;;;;40.85;25.73;;;;;;;7.36;100.00;99948.75;5034623;28;20041;-85
2023/12/21 06:31:44;;;;;;;44.60;25.73;;;;;;;7.35;100.00;99953.16;5041971;28;20045;-86
2023/12/21 06:34:09;;;;;;;41.75;25.60;;;;;;;7.34;100.00;99950.63;5042195;28;20140;-84
2023/12/21 06:36:35;;;;;;;40.75;25.88;;;;;;;7.29;100.00;99953.50;5052959;28;20021;-85
2023/12/21 06:39:00;;;;;;;40.95;26.10;;;;;;;7.35;100.00;99966.41;5014485;28;20026;-86
2023/12/21 06:41:27;;;;;;;41.03;26.63;;;;;;;7.36;100.00;99970.78;5010960;28;20664;-86
2023/12/21 06:43:53;;;;;;;44.72;26.40;;;;;;;7.37;100.00;99963.69;5026117;28;20042;-85
2023/12/21 06:46:20;;;;;;;42.88;26.65;;;;;;;7.17;100.00;99922.38;5022849;28;20111;-84
2023/12/21 06:48:46;;;;;;;42.90;26.60;;;;;;;7.38;100.00;99960.13;5014945;28;20050;-84
2023/12/21 06:51:13;;;;;;;43.35;26.65;;;;;;;7.37;100.00;99958.41;5022405;28;20399;-85
2023/12/21 06:53:40;;;;;;;43.35;26.17;;;;;;;7.37;100.00;99959.25;5018178;28;20318;-87
2023/12/21 06:56:07;;;;;;;44.13;26.58;;;;;;;7.39;100.00;99951.22;5012051;28;20542;-83
2023/12/21 06:58:33;;;;;;;43.08;25.67;;;;;;;7.41;100.00;99944.06;5023001;28;20049;-85
2023/12/21 07:00:58;;;;;;;40.28;25.58;;;;;;;7.40;100.00;99932.63;5015016;28;20036;-84
2023/12/21 07:03:23;;;;;;;43.42;24.55;;;;;;;7.42;100.00;99927.25;5001563;28;20049;-84
2023/12/21 07:05:52;;;;;;;44.70;24.40;;;;;;;7.33;100.00;99896.81;5025587;28;20044;-84
2023/12/21 07:08:18;;;;;;;36.05;22.42;;;;;;;7.38;100.00;99893.94;5009632;28;20037;-85
2023/12/21 07:10:43;;;;;;;34.05;22.02;;;;;;;7.43;100.00;99895.38;5009083;28;20037;-84
2023/12/21 07:13:09;;;;;;;34.50;21.08;;;;;;;7.45;100.00;99884.75;5008385;28;20511;-85
2023/12/21 07:15:35;;;;;;;37.28;21.85;;;;;;;7.42;100.00;99875.16;5024963;28;20254;-86
2023/12/21 07:18:00;;;;;;;36.80;21.65;;;;;;;7.42;100.00;99872.50;5015553;28;20124;-85
2023/12/21 07:20:26;;;;;;;40.90;22.40;;;;;;;7.39;100.00;99875.31;5021185;28;20032;-85
2023/12/21 07:22:51;;;;;;;33.00;21.13;;;;;;;7.42;100.00;99874.31;5023744;28;20125;-85
2023/12/21 07:25:17;;;;;;;35.95;21.30;;;;;;;7.44;100.00;99880.34;5026837;28;20052;-85
2023/12/21 07:27:43;;;;;;;30.33;19.10;;;;;;;7.46;100.00;99883.78;5023535;28;20037;-84
2023/12/21 07:30:09;;;;;;;34.10;20.17;;;;;;;7.36;100.00;99862.25;5018208;28;20048;-85
2023/12/21 07:32:34;;;;;;;31.58;19.50;;;;;;;7.47;100.00;99859.88;5001579;28;20043;-85
2023/12/21 07:35:00;;;;;;;29.85;18.10;;;;;;;7.46;100.00;99868.75;5022716;28;20452;-85
2023/12/21 07:37:26;;;;;;;28.65;18.20;;;;;;;7.46;100.00;99841.44;5015369;28;20852;-84
2023/12/21 07:39:51;;;;;;;30.15;16.75;;;;;;;7.43;100.00;99834.50;5004507;28;20120;-84
2023/12/21 07:42:17;;;;;;;24.98;16.88;;;;;;;7.47;100.00;99827.25;5027827;28;20029;-85
2023/12/21 07:44:43;;;;;;;24.30;16.02;;;;;;;7.45;100.00;99818.53;5023382;28;20049;-85
2023/12/21 07:47:08;;;;;;;22.00;15.05;;;;;;;7.51;100.00;99831.44;5017978;28;20045;-85
2023/12/21 07:49:34;;;;;;;27.90;15.90;;;;;;;7.47;100.00;99803.41;5024970;28;20041;-85
2023/12/21 07:51:59;;;;;;;23.35;16.38;;;;;;;7.47;100.00;99814.84;5030324;28;20043;-84
2023/12/21 07:54:24;;;;;;;29.02;16.10;;;;;;;7.55;100.00;99825.03;5027468;28;20438;-84
2023/12/21 07:56:50;;;;;;;27.48;16.70;;;;;;;7.47;100.00;99808.72;5011139;28;20061;-85
2023/12/21 07:59:17;;;;;;;23.98;17.27;;;;;;;7.58;100.00;99816.09;5025304;28;20050;-85
2023/12/21 08:01:43;;;;;;;24.75;16.63;;;;;;;7.48;100.00;99799.81;5024537;28;20104;-84
2023/12/21 08:04:09;;;;;;;24.15;16.73;;;;;;;7.55;100.00;99806.50;5020667;28;20053;-84
2023/12/21 08:06:34;;;;;;;23.60;16.65;;;;;;;7.63;100.00;99822.81;5011239;28;20255;-83
2023/12/21 08:09:00;;;;;;;18.48;15.45;;;;;;;7.64;100.00;99816.56;5010079;28;20037;-86
2023/12/21 08:11:26;;;;;;;22.13;15.38;;;;;;;7.65;100.00;99813.03;5027071;28;20076;-83
2023/12/21 08:13:51;;;;;;;22.00;15.75;;;;;;;7.66;100.00;99816.50;5027942;28;20041;-84
2023/12/21 08:16:17;;;;;;;21.90;14.52;;;;;;;7.56;100.00;99778.22;5014463;28;20176;-83
2023/12/21 08:18:44;;;;;;;23.85;15.00;;;;;;;7.67;100.00;99795.22;5030688;28;20076;-83
2023/12/21 08:21:09;;;;;;;19.80;13.43;;;;;;;7.68;100.00;99790.78;4999778;28;20036;-83
2023/12/21 08:23:35;;;;;;;19.30;12.85;;;;;;;7.70;100.00;99818.06;5038254;28;20103;-85
2023/12/21 08:26:00;;;;;;;18.58;13.40;;;;;;;7.68;100.00;99773.09;5012340;28;20061;-85
2023/12/21 08:28:29;;;;;;;20.30;13.07;;;;;;;7.70;100.00;99780.97;5027207;28;20122;-85
2023/12/21 08:30:54;;;;;;;21.27;13.38;;;;;;;7.73;100.00;99771.06;5020400;28;20120;-84
2023/12/21 08:33:20;;;;;;;21.17;13.05;;;;;;;7.66;100.00;99767.03;5015035;28;20124;-83
2023/12/21 08:35:46;;;;;;;16.75;12.50;;;;;;;7.66;100.00;99752.94;5016679;28;20346;-84
2023/12/21 08:38:12;;;;;;;21.65;12.45;;;;;;;7.55;100.00;99748.25;5000891;28;20037;-84
2023/12/21 08:40:37;;;;;;;21.60;13.70;;;;;;;7.65;100.00;99749.47;5026897;28;20033;-85
2023/12/21 08:43:03;;;;;;;20.48;12.80;;;;;;;7.73;100.00;99771.06;5018120;28;20037;-84
2023/12/21 08:45:28;;;;;;;20.88;13.10;;;;;;;7.57;100.00;99737.59;5027700;28;20061;-84
2023/12/21 08:47:54;;;;;;;16.65;12.80;;;;;;;7.77;100.00;99761.13;5024518;28;20037;-84
2023/12/21 08:50:23;;;;;;;16.08;13.32;;;;;;;7.80;100.00;99770.72;5028730;28;20044;-85
2023/12/21 08:52:49;;;;;;;18.55;12.95;;;;;;;7.76;100.00;99756.78;5024056;28;20496;-84
2023/12/21 08:55:14;;;;;;;18.85;13.27;;;;;;;7.80;100.00;99757.47;5009962;28;20180;-85
2023/12/21 08:57:39;;;;;;;18.50;13.85;;;;;;;7.74;100.00;99770.13;5032143;28;20474;-83
2023/12/21 09:00:07;;;;;;;17.23;13.88;;;;;;;7.82;100.00;99753.81;5043723;28;20585;-84
2023/12/21 09:02:35;;;;;;;18.35;13.68;;;;;;;7.76;100.00;99717.03;5027338;28;20034;-84
2023/12/21 09:05:02;;;;;;;17.15;13.70;;;;;;;7.79;100.00;99759.25;5028269;28;20037;-84
2023/12/21 09:07:28;;;;;;;17.33;14.57;;;;;;;7.84;100.00;99748.41;5025339;28;20037;-83
2023/12/21 09:09:53;;;;;;;16.40;13.80;;;;;;;7.88;100.00;99719.00;5033014;28;20658;-83
2023/12/21 09:12:18;;;;;;;18.65;14.45;;;;;;;7.91;100.00;99737.38;5025829;28;20033;-83
2023/12/21 09:14:44;;;;;;;14.98;12.85;;;;;;;7.92;100.00;99736.44;5024898;28;20033;-82
2023/12/21 09:17:10;;;;;;;18.48;14.18;;;;;;;7.92;100.00;99723.19;5022634;28;20037;-83
2023/12/21 09:19:35;;;;;;;17.08;14.35;;;;;;;7.90;100.00;99727.72;5016284;28;20037;-83
2023/12/21 09:22:01;;;;;;;18.27;14.95;;;;;;;7.92;100.00;99712.56;5003847;28;20034;-84
2023/12/21 09:24:26;;;;;;;16.38;14.55;;;;;;;7.91;100.00;99710.88;5011403;28;20032;-84
2023/12/21 09:26:51;;;;;;;19.08;15.20;;;;;;;8.01;100.00;99713.84;5008644;28;20527;-84
2023/12/21 09:29:17;;;;;;;16.70;14.60;;;;;;;7.97;100.00;99705.22;5028017;28;20060;-85
2023/12/21 09:31:42;;;;;;;17.67;13.55;;;;;;;8.07;100.00;99709.97;5019176;28;20047;-85
2023/12/21 09:34:08;;;;;;;17.63;14.05;;;;;;;8.08;100.00;99709.03;5033088;28;20048;-85
2023/12/21 09:36:33;;;;;;;17.15;12.60;;;;;;;8.08;100.00;99715.19;5023700;28;20076;-84
2023/12/21 09:38:58;;;;;;;13.85;12.10;;;;;;;8.07;100.00;99710.84;5022179;28;20057;-84
2023/12/21 09:41:24;;;;;;;15.40;11.85;;;;;;;8.05;100.00;99712.72;5009881;28;20113;-84
2023/12/21 09:43:52;;;;;;;14.55;10.88;;;;;;;8.10;100.00;99700.03;5028159;28;20044;-84
2023/12/21 09:46:21;;;;;;;15.80;10.40;;;;;;;8.13;100.00;99714.94;5020361;28;20049;-84
2023/12/21 09:48:47;;;;;;;11.93;9.68;;;;;;;8.09;100.00;99692.19;5031435;28;20096;-84
2023/12/21 09:51:16;;;;;;;13.30;9.15;;;;;;;8.08;100.00;99685.19;5031755;28;20080;-84
2023/12/21 09:53:43;;;;;;;10.60;7.50;;;;;;;8.11;100.00;99695.59;5033527;28;20041;-84
2023/12/21 09:56:13;;;;;;;12.15;7.10;;;;;;;8.19;100.00;99698.66;5021736;28;20378;-84
2023/12/21 09:58:39;;;;;;;10.10;6.70;;;;;;;8.12;100.00;99695.53;5022390;28;20044;-85
2023/12/21 10:01:05;;;;;;;9.77;5.80;;;;;;;8.22;100.00;99701.13;5038925;28;20025;-83
2023/12/21 10:03:32;;;;;;;10.93;5.45;;;;;;;8.25;100.00;99690.34;5019503;28;20037;-85
2023/12/21 10:05:58;;;;;;;7.80;4.55;;;;;;;8.30;100.00;99680.31;5025195;28;20033;-85
2023/12/21 10:08:23;;;;;;;9.73;4.50;;;;;;;8.33;100.00;99689.88;5010900;28;20033;-85
2023/12/21 10:10:49;;;;;;;11.18;4.50;;;;;;;8.23;100.00;99648.03;5012424;28;20558;-84
2023/12/21 10:13:15;;;;;;;9.52;4.00;;;;;;;8.43;100.00;99673.34;5025307;28;20047;-84
2023/12/21 10:15:43;;;;;;;8.50;3.80;;;;;;;8.42;100.00;99681.41;5020517;28;20259;-83
2023/12/21 10:18:09;;;;;;;12.20;4.65;;;;;;;8.46;100.00;99665.22;5032378;28;20037;-84
2023/12/21 10:20:35;;;;;;;8.48;4.10;;;;;;;8.48;100.00;99678.38;5022240;28;20029;-84
2023/12/21 10:23:00;;;;;;;9.52;4.03;;;;;;;8.50;100.00;99659.72;5016187;28;20026;-84
2023/12/21 10:25:26;;;;;;;11.15;3.85;;;;;;;8.50;100.00;99671.19;5029993;28;20087;-85
2023/12/21 10:27:55;;;;;;;8.52;3.53;;;;;;;8.55;100.00;99686.81;5026777;28;20041;-84
2023/12/21 10:30:25;;;;;;;9.75;4.03;;;;;;;8.58;100.00;99666.28;5022491;28;20558;-84
2023/12/21 10:32:57;;;;;;;10.13;4.00;;;;;;;8.60;100.00;99658.22;5011980;28;20058;-84
2023/12/21 10:35:23;;;;;;;11.30;3.58;;;;;;;8.69;100.00;99682.41;5005168;28;20547;-84
2023/12/21 10:37:48;;;;;;;10.18;3.42;;;;;;;8.71;100.00;99688.44;5032234;28;20037;-83
2023/12/21 10:40:15;;;;;;;9.38;3.92;;;;;;;8.67;100.00;99678.97;5033132;28;20044;-82
2023/12/21 10:42:46;;;;;;;12.40;3.60;;;;;;;8.79;100.00;99673.84;5032746;28;20108;-83
2023/12/21 10:45:16;;;;;;;12.65;3.90;;;;;;;8.76;100.00;99677.53;5018930;28;20177;-84
2023/12/21 10:47:52;;;;;;;12.00;3.58;;;;;;;8.66;100.00;99645.44;4995367;28;20512;-83
2023/12/21 10:50:19;;;;;;;11.52;3.13;;;;;;;8.78;100.00;99680.97;5024124;28;20041;-83
2023/12/21 10:52:46;;;;;;;9.98;3.25;;;;;;;8.79;100.00;99681.81;4999135;28;20042;-83
2023/12/21 10:55:14;;;;;;;12.18;3.10;;;;;;;8.77;100.00;99665.97;5018415;28;20092;-83
2023/12/21 10:57:41;;;;;;;12.32;3.10;;;;;;;8.72;100.00;99665.41;5024784;28;20041;-82
2023/12/21 11:00:12;;;;;;;8.27;2.45;;;;;;;8.83;100.00;99678.88;5015754;28;20029;-83
2023/12/21 11:02:41;;;;;;;9.13;3.33;;;;;;;8.80;100.00;99671.09;5002006;28;20077;-83
2023/12/21 11:05:08;;;;;;;11.18;3.38;;;;;;;8.72;100.00;99628.28;5019723;28;20047;-84
2023/12/21 11:07:33;;;;;;;9.75;3.50;;;;;;;8.70;100.00;99619.56;5006961;28;20033;-82